Time;durP1;ratioP1;P1;durP2;ratioP2;P2;SDS_P1;SDS_P2;PMS_P1;PMS_P2;Temp;Humidity;BMP_temperature;BMP_pressure;BME280_temperature;BME280_humidity;BME280_pressure;Samples;Min_cycle;Max_cycle;Signal;HPM_P1;HPM_P2
2022/10/31 00:00:49;;;;;;;12.48;2.80;;;14.00;99.90;;;;;;5030171;28;21063;-72
2022/10/31 00:03:15;;;;;;;11.07;2.97;;;13.90;99.90;;;;;;5027466;28;20029;-71
2022/10/31 00:05:46;;;;;;;10.45;2.55;;;13.70;99.90;;;;;;5028438;28;20068;-71
2022/10/31 00:08:12;;;;;;;9.60;3.00;;;13.90;99.90;;;;;;5032810;28;20036;-71
2022/10/31 00:10:38;;;;;;;11.10;2.85;;;14.10;99.90;;;;;;5030481;28;20030;-72
2022/10/31 00:13:04;;;;;;;9.45;2.75;;;14.30;99.90;;;;;;5030495;28;20025;-71
2022/10/31 00:15:31;;;;;;;10.95;3.45;;;14.30;99.90;;;;;;5031815;28;20071;-71
2022/10/31 00:17:58;;;;;;;12.32;3.97;;;14.20;99.90;;;;;;5032112;28;20438;-71
2022/10/31 00:20:24;;;;;;;12.82;3.33;;;14.00;99.90;;;;;;5032884;28;20455;-72
2022/10/31 00:22:49;;;;;;;19.58;4.85;;;14.00;99.90;;;;;;5030806;28;20057;-71
2022/10/31 00:25:15;;;;;;;13.60;4.00;;;14.10;99.90;;;;;;5035469;28;20535;-71
2022/10/31 00:27:41;;;;;;;9.82;2.63;;;14.00;99.90;;;;;;5037558;28;20057;-71
2022/10/31 00:30:07;;;;;;;11.90;2.50;;;14.00;99.90;;;;;;5033023;28;20033;-71
2022/10/31 00:32:32;;;;;;;11.38;3.00;;;14.00;99.90;;;;;;5038318;28;20025;-71
2022/10/31 00:34:58;;;;;;;11.88;3.78;;;14.20;99.90;;;;;;5032687;28;20036;-71
2022/10/31 00:37:24;;;;;;;8.98;3.40;;;14.10;99.90;;;;;;5030523;28;20395;-71
2022/10/31 00:39:49;;;;;;;14.38;3.20;;;14.00;99.90;;;;;;5038001;28;20117;-71
2022/10/31 00:42:15;;;;;;;11.30;2.80;;;14.00;99.90;;;;;;5035525;28;20043;-71
2022/10/31 00:44:41;;;;;;;9.25;3.20;;;14.10;99.90;;;;;;5037131;28;20033;-71
2022/10/31 00:47:07;;;;;;;7.72;2.40;;;14.00;99.90;;;;;;5030873;28;20428;-71
2022/10/31 00:49:32;;;;;;;6.72;2.55;;;14.00;99.90;;;;;;5041853;28;20036;-71
2022/10/31 00:51:58;;;;;;;9.95;2.72;;;14.00;99.90;;;;;;5038093;28;20033;-71
2022/10/31 00:54:23;;;;;;;10.23;3.00;;;14.00;99.90;;;;;;5036973;28;20024;-71
2022/10/31 00:56:49;;;;;;;11.55;3.47;;;14.00;99.90;;;;;;5037025;28;20029;-71
2022/10/31 00:59:15;;;;;;;12.20;3.38;;;14.00;99.90;;;;;;5033655;28;20053;-71
2022/10/31 01:01:41;;;;;;;9.15;2.63;;;14.10;99.90;;;;;;5037688;28;20110;-71
2022/10/31 01:04:06;;;;;;;8.85;3.42;;;13.90;99.90;;;;;;5029142;28;20079;-71
2022/10/31 01:06:32;;;;;;;10.23;2.83;;;13.70;99.90;;;;;;5038428;28;20026;-71
2022/10/31 01:08:57;;;;;;;11.57;3.03;;;13.70;99.90;;;;;;5038433;28;20029;-71
2022/10/31 01:11:23;;;;;;;14.20;3.28;;;13.80;99.90;;;;;;5034743;28;20467;-71
2022/10/31 01:13:53;;;;;;;10.30;2.85;;;13.90;99.90;;;;;;5027950;28;20041;-71
2022/10/31 01:16:22;;;;;;;11.55;2.50;;;13.90;99.90;;;;;;5031115;28;20053;-71
2022/10/31 01:18:48;;;;;;;10.68;2.78;;;14.00;99.90;;;;;;5031536;28;20368;-71
2022/10/31 01:21:19;;;;;;;14.18;3.03;;;13.80;99.90;;;;;;5033002;28;20040;-71
2022/10/31 01:23:45;;;;;;;10.75;2.80;;;13.80;99.90;;;;;;5029683;28;20114;-71
2022/10/31 01:26:20;;;;;;;10.55;3.88;;;13.70;99.90;;;;;;5030712;28;20064;-71
2022/10/31 01:28:49;;;;;;;13.00;3.35;;;13.70;99.90;;;;;;5036447;28;20037;-71
2022/10/31 01:31:16;;;;;;;14.63;2.58;;;13.90;99.90;;;;;;5031328;28;20163;-71
2022/10/31 01:33:42;;;;;;;10.10;3.17;;;13.80;99.90;;;;;;5037099;28;20053;-71
2022/10/31 01:36:12;;;;;;;13.35;3.30;;;13.90;99.90;;;;;;5029148;28;20728;-71
2022/10/31 01:38:38;;;;;;;8.38;2.58;;;13.80;99.90;;;;;;5033676;28;20106;-71
2022/10/31 01:41:04;;;;;;;9.43;3.30;;;13.60;99.90;;;;;;5031252;28;20064;-71
2022/10/31 01:43:45;;;;;;;10.48;2.88;;;13.50;99.90;;;;;;5032472;28;20037;-71
2022/10/31 01:46:12;;;;;;;11.40;3.22;;;13.50;99.90;;;;;;5030570;28;20057;-71
2022/10/31 01:48:39;;;;;;;6.78;2.35;;;13.70;99.90;;;;;;5029580;28;20022;-71
2022/10/31 01:51:05;;;;;;;12.95;3.45;;;13.60;99.90;;;;;;5030081;28;20549;-72
2022/10/31 01:53:32;;;;;;;11.18;3.40;;;14.00;99.90;;;;;;5029187;28;20026;-71
2022/10/31 01:55:59;;;;;;;8.50;2.75;;;13.90;99.90;;;;;;5035930;28;20040;-71
2022/10/31 01:58:30;;;;;;;8.90;2.90;;;13.70;99.90;;;;;;5031316;28;20096;-71
2022/10/31 02:00:59;;;;;;;8.35;2.90;;;13.50;99.90;;;;;;5031454;28;20435;-71
2022/10/31 02:03:26;;;;;;;10.80;2.60;;;13.20;99.90;;;;;;5029191;28;20029;-71
2022/10/31 02:05:57;;;;;;;8.52;2.92;;;13.30;99.90;;;;;;5035751;28;20033;-71
2022/10/31 02:08:31;;;;;;;8.07;3.72;;;13.30;99.90;;;;;;5029858;28;20029;-71
2022/10/31 02:10:59;;;;;;;12.88;3.10;;;13.40;99.90;;;;;;5032738;28;20044;-71
2022/10/31 02:13:25;;;;;;;10.63;2.53;;;13.60;99.90;;;;;;5034853;28;20633;-71
2022/10/31 02:15:57;;;;;;;12.25;3.25;;;13.40;99.90;;;;;;5027900;28;20059;-71
2022/10/31 02:18:26;;;;;;;10.63;3.08;;;13.30;99.90;;;;;;5034317;28;20391;-71
2022/10/31 02:21:10;;;;;;;12.40;2.65;;;13.40;99.90;;;;;;5030782;28;20391;-71
2022/10/31 02:23:50;;;;;;;7.80;2.17;;;13.30;99.90;;;;;;5032957;28;20053;-71
2022/10/31 02:26:35;;;;;;;12.75;3.28;;;13.10;99.90;;;;;;5032410;28;20036;-71
2022/10/31 02:29:29;;;;;;;11.30;3.20;;;12.90;99.90;;;;;;5031071;28;20049;-71
2022/10/31 02:31:57;;;;;;;12.95;2.95;;;13.00;99.90;;;;;;5035752;28;20072;-71
2022/10/31 02:34:34;;;;;;;9.68;3.85;;;13.10;99.90;;;;;;5033926;28;20083;-71
2022/10/31 02:37:41;;;;;;;9.48;2.97;;;12.90;99.90;;;;;;5031267;28;20046;-71
2022/10/31 02:40:20;;;;;;;13.82;3.97;;;12.90;99.90;;;;;;4947143;29;20042;-71
2022/10/31 02:43:09;;;;;;;8.80;3.85;;;12.70;99.90;;;;;;5025460;28;20041;-71
2022/10/31 02:45:50;;;;;;;7.82;2.63;;;12.90;99.90;;;;;;4990180;28;20045;-71
2022/10/31 02:48:23;;;;;;;12.23;3.00;;;13.00;99.90;;;;;;5033660;28;20037;-71
2022/10/31 02:50:55;;;;;;;11.50;3.38;;;13.20;99.90;;;;;;5030453;28;20367;-71
2022/10/31 02:53:21;;;;;;;11.88;2.88;;;13.30;99.90;;;;;;5034580;28;20040;-71
2022/10/31 02:56:01;;;;;;;18.67;3.40;;;13.30;99.90;;;;;;5027829;28;20033;-71
2022/10/31 02:58:31;;;;;;;8.65;2.90;;;13.30;99.90;;;;;;5028037;28;20099;-71
2022/10/31 03:01:34;;;;;;;11.98;2.90;;;13.20;99.90;;;;;;5033363;28;20485;-70
2022/10/31 03:04:16;;;;;;;11.05;2.78;;;13.30;99.90;;;;;;5031310;28;20126;-70
2022/10/31 03:07:09;;;;;;;14.27;3.58;;;13.30;99.90;;;;;;5029261;28;20021;-69
2022/10/31 03:10:13;;;;;;;11.95;3.72;;;13.30;99.90;;;;;;5023485;28;20065;-70
2022/10/31 03:12:47;;;;;;;12.35;3.88;;;13.40;99.90;;;;;;5029557;28;20585;-70
2022/10/31 03:15:26;;;;;;;11.70;3.85;;;13.40;99.90;;;;;;5029944;28;20064;-69
2022/10/31 03:18:09;;;;;;;7.50;3.05;;;13.10;99.90;;;;;;5031032;28;20053;-69
2022/10/31 03:20:43;;;;;;;11.18;3.20;;;13.00;99.90;;;;;;5028727;28;20025;-69
2022/10/31 03:23:12;;;;;;;;;;;13.20;99.90;;;;;;5034049;28;20029;-69
2022/10/31 03:25:39;;;;;;;12.40;3.15;;;13.10;99.90;;;;;;5028385;28;19912;-70
2022/10/31 03:28:06;;;;;;;7.85;2.25;;;13.00;99.90;;;;;;5032156;28;20025;-70
2022/10/31 03:30:35;;;;;;;10.60;2.92;;;12.70;99.90;;;;;;5036423;28;20068;-70
2022/10/31 03:33:05;;;;;;;8.80;3.45;;;12.70;99.90;;;;;;5029542;28;20117;-69
2022/10/31 03:35:34;;;;;;;10.25;3.15;;;12.80;99.90;;;;;;5027491;28;20823;-70
2022/10/31 03:38:02;;;;;;;12.23;3.15;;;12.70;99.90;;;;;;5035157;28;20071;-70
2022/10/31 03:40:29;;;;;;;9.57;3.10;;;12.80;99.90;;;;;;5041432;28;20034;-69
2022/10/31 03:43:00;;;;;;;19.73;3.95;;;12.90;99.90;;;;;;5027970;28;25719;-70
2022/10/31 03:45:29;;;;;;;13.68;3.30;;;13.00;99.90;;;;;;5032416;28;20025;-69
2022/10/31 03:47:56;;;;;;;7.10;2.40;;;13.30;99.90;;;;;;5028799;28;20037;-70
2022/10/31 03:50:25;;;;;;;12.13;3.78;;;13.30;99.90;;;;;;5034516;28;20052;-70
2022/10/31 03:53:01;;;;;;;12.70;4.20;;;13.30;99.90;;;;;;5028598;28;20395;-70
2022/10/31 03:55:42;;;;;;;8.40;2.88;;;13.30;99.90;;;;;;5033617;28;20463;-70
2022/10/31 03:58:32;;;;;;;9.95;2.72;;;13.20;99.90;;;;;;5037023;28;20124;-70
2022/10/31 04:00:59;;;;;;;10.43;3.33;;;13.10;99.90;;;;;;5033732;28;20021;-70
2022/10/31 04:03:34;;;;;;;11.65;4.45;;;12.80;99.90;;;;;;5027199;28;20091;-70
2022/10/31 04:06:05;;;;;;;13.50;3.25;;;12.60;99.90;;;;;;5025942;28;20037;-70
2022/10/31 04:08:36;;;;;;;10.23;3.28;;;12.40;99.90;;;;;;5023177;28;20025;-70
2022/10/31 04:11:04;;;;;;;10.60;2.72;;;12.20;99.90;;;;;;5022257;28;20037;-70
2022/10/31 04:13:33;;;;;;;11.25;3.55;;;12.50;99.90;;;;;;5023113;28;20044;-70
2022/10/31 04:15:59;;;;;;;11.43;3.90;;;12.50;99.90;;;;;;5026060;28;20057;-70
2022/10/31 04:18:26;;;;;;;11.55;3.75;;;12.60;99.90;;;;;;5020097;28;20036;-70
2022/10/31 04:21:03;;;;;;;6.80;2.45;;;12.50;99.90;;;;;;5020354;28;20026;-70
2022/10/31 04:23:28;;;;;;;13.48;2.70;;;12.30;99.90;;;;;;5022519;28;20553;-70
2022/10/31 04:25:54;;;;;;;8.77;3.85;;;12.40;99.90;;;;;;5026338;28;20112;-70
2022/10/31 04:28:20;;;;;;;10.20;3.38;;;12.50;99.90;;;;;;5026489;28;20037;-70
2022/10/31 04:30:46;;;;;;;13.38;3.15;;;12.50;99.90;;;;;;5035647;28;20036;-70
2022/10/31 04:33:11;;;;;;;13.80;3.50;;;12.50;99.90;;;;;;5023843;28;20114;-70
2022/10/31 04:35:37;;;;;;;11.55;3.22;;;12.40;99.90;;;;;;5028826;28;20068;-70
2022/10/31 04:38:02;;;;;;;9.98;3.40;;;12.50;99.90;;;;;;5022237;28;20037;-70
2022/10/31 04:40:28;;;;;;;9.88;2.92;;;12.50;99.90;;;;;;5026629;28;20041;-70
2022/10/31 04:42:54;;;;;;;9.55;2.88;;;12.40;99.90;;;;;;5025900;28;20037;-70
2022/10/31 04:45:19;;;;;;;9.65;2.95;;;12.30;99.90;;;;;;5037769;28;20033;-70
2022/10/31 04:47:45;;;;;;;9.60;2.50;;;12.50;99.90;;;;;;5026629;28;20033;-70
2022/10/31 04:50:10;;;;;;;9.05;2.85;;;12.30;99.90;;;;;;5026476;28;20029;-70
2022/10/31 04:52:44;;;;;;;8.65;3.30;;;12.20;99.90;;;;;;5030268;28;20119;-70
2022/10/31 04:55:10;;;;;;;11.23;3.17;;;12.30;99.90;;;;;;5027017;28;20036;-70
2022/10/31 04:57:54;;;;;;;11.52;3.50;;;12.50;99.90;;;;;;5031124;28;20093;-70
2022/10/31 05:00:22;;;;;;;7.13;3.00;;;12.60;99.90;;;;;;5027089;28;20029;-70
2022/10/31 05:02:49;;;;;;;12.07;2.60;;;12.70;99.90;;;;;;5025646;28;20048;-70
2022/10/31 05:05:17;;;;;;;6.15;2.63;;;12.80;99.90;;;;;;5026944;28;20029;-70
2022/10/31 05:07:45;;;;;;;7.45;2.67;;;12.60;99.90;;;;;;5028982;28;20033;-70
2022/10/31 05:10:13;;;;;;;8.63;2.35;;;12.50;99.90;;;;;;5030491;28;20032;-70
2022/10/31 05:12:47;;;;;;;6.70;2.95;;;12.50;99.90;;;;;;5028085;28;20029;-70
2022/10/31 05:15:13;;;;;;;10.45;3.17;;;12.50;99.90;;;;;;5036321;28;20045;-70
2022/10/31 05:17:39;;;;;;;11.32;2.95;;;12.50;99.90;;;;;;5033316;28;20105;-71
2022/10/31 05:20:05;;;;;;;9.32;3.17;;;12.20;99.90;;;;;;5026933;28;20056;-70
2022/10/31 05:22:31;;;;;;;8.75;3.25;;;12.10;99.90;;;;;;5028827;28;20036;-70
2022/10/31 05:24:56;;;;;;;8.25;2.13;;;12.10;99.90;;;;;;5027406;28;20034;-70
2022/10/31 05:27:22;;;;;;;8.80;2.60;;;12.20;99.90;;;;;;5025755;28;20017;-70
2022/10/31 05:29:48;;;;;;;11.05;2.65;;;12.20;99.90;;;;;;5033993;28;20037;-70
2022/10/31 05:32:13;;;;;;;11.90;3.42;;;12.10;99.90;;;;;;5027156;28;20033;-70
2022/10/31 05:34:39;;;;;;;11.90;3.70;;;11.90;99.90;;;;;;5028891;28;20104;-70
2022/10/31 05:37:04;;;;;;;9.52;3.58;;;11.70;99.90;;;;;;5026044;28;20178;-70
2022/10/31 05:39:30;;;;;;;9.68;2.83;;;11.60;99.90;;;;;;5024887;28;20104;-70
2022/10/31 05:41:56;;;;;;;7.72;3.10;;;11.40;99.90;;;;;;5027172;28;20319;-70
2022/10/31 05:44:21;;;;;;;7.28;2.60;;;11.60;99.90;;;;;;5028949;28;20030;-70
2022/10/31 05:46:47;;;;;;;15.02;3.88;;;11.90;99.90;;;;;;5026946;28;20041;-70
2022/10/31 05:49:13;;;;;;;9.18;2.50;;;12.10;99.90;;;;;;5025748;28;20026;-70
2022/10/31 05:51:38;;;;;;;12.35;3.03;;;12.30;99.90;;;;;;5030162;28;20033;-70
2022/10/31 05:54:04;;;;;;;10.65;2.85;;;12.30;99.90;;;;;;5027333;28;20037;-70
2022/10/31 05:56:30;;;;;;;9.35;2.75;;;12.40;99.90;;;;;;5029499;28;20033;-70
2022/10/31 05:58:56;;;;;;;12.13;3.03;;;12.30;99.90;;;;;;5025742;28;20030;-70
2022/10/31 06:01:21;;;;;;;12.52;3.08;;;12.20;99.90;;;;;;5026489;28;20064;-70
2022/10/31 06:03:47;;;;;;;13.15;3.15;;;12.10;99.90;;;;;;5035596;28;20631;-70
2022/10/31 06:06:13;;;;;;;9.35;3.13;;;12.00;99.90;;;;;;5025366;28;20033;-70
2022/10/31 06:08:38;;;;;;;10.63;2.90;;;12.10;99.90;;;;;;5027836;28;20378;-70
2022/10/31 06:11:04;;;;;;;15.30;2.72;;;12.30;99.90;;;;;;5026745;28;20470;-70
2022/10/31 06:13:30;;;;;;;11.30;2.60;;;12.30;99.90;;;;;;5025501;28;20113;-70
2022/10/31 06:15:55;;;;;;;10.95;2.63;;;12.20;99.90;;;;;;5026104;28;20055;-70
2022/10/31 06:18:21;;;;;;;9.38;2.80;;;12.20;99.90;;;;;;5029792;28;20044;-70
2022/10/31 06:20:47;;;;;;;11.50;3.05;;;12.10;99.90;;;;;;5027011;28;20028;-70
2022/10/31 06:23:12;;;;;;;12.02;2.88;;;12.10;99.90;;;;;;5026453;28;20036;-70
2022/10/31 06:25:38;;;;;;;8.43;2.83;;;12.30;99.90;;;;;;5032773;28;20516;-70
2022/10/31 06:28:04;;;;;;;10.82;3.47;;;12.30;99.90;;;;;;5032226;28;20387;-70
2022/10/31 06:30:30;;;;;;;15.50;3.28;;;12.70;99.90;;;;;;5024257;28;20419;-70
2022/10/31 06:33:02;;;;;;;12.82;3.08;;;12.70;99.90;;;;;;5024390;28;20038;-70
2022/10/31 06:35:27;;;;;;;14.60;3.55;;;12.70;99.90;;;;;;5025133;28;20139;-70
2022/10/31 06:37:54;;;;;;;9.93;3.17;;;12.50;99.90;;;;;;5024692;28;20164;-70
2022/10/31 06:40:20;;;;;;;10.45;3.00;;;12.00;99.90;;;;;;5031253;28;20447;-70
2022/10/31 06:42:45;;;;;;;9.40;2.75;;;12.00;99.90;;;;;;5026082;28;20035;-70
2022/10/31 06:45:11;;;;;;;8.40;3.35;;;11.80;99.90;;;;;;5025334;28;20237;-70
2022/10/31 06:47:37;;;;;;;7.00;3.13;;;11.80;99.90;;;;;;5025430;28;20025;-70
2022/10/31 06:50:02;;;;;;;12.25;3.28;;;11.90;99.90;;;;;;5024579;28;20036;-70
2022/10/31 06:52:28;;;;;;;9.45;2.75;;;11.90;99.90;;;;;;5021671;28;20116;-70
2022/10/31 06:54:54;;;;;;;9.77;2.80;;;12.00;99.90;;;;;;5025579;28;20144;-71
2022/10/31 06:57:19;;;;;;;8.07;2.55;;;12.00;99.90;;;;;;5027594;28;20068;-70
2022/10/31 06:59:45;;;;;;;10.13;2.30;;;12.20;99.90;;;;;;5028795;28;20529;-70
2022/10/31 07:02:11;;;;;;;11.13;3.42;;;12.30;99.90;;;;;;5022284;28;20496;-70
2022/10/31 07:04:37;;;;;;;9.35;2.60;;;12.30;99.90;;;;;;5024766;28;20123;-70
2022/10/31 07:07:03;;;;;;;14.00;3.20;;;12.20;99.90;;;;;;5021222;28;20036;-70
2022/10/31 07:09:29;;;;;;;10.85;3.15;;;12.10;99.90;;;;;;5021613;28;20026;-70
2022/10/31 07:11:54;;;;;;;8.13;2.40;;;12.10;99.90;;;;;;5028378;28;20036;-70
2022/10/31 07:14:20;;;;;;;10.32;2.72;;;12.00;99.90;;;;;;5024573;28;20040;-70
2022/10/31 07:16:50;;;;;;;9.07;2.92;;;12.20;99.90;;;;;;5023270;28;20607;-70
2022/10/31 07:19:16;;;;;;;9.57;2.65;;;12.20;99.90;;;;;;5031174;28;20029;-70
2022/10/31 07:21:41;;;;;;;8.50;3.15;;;12.00;99.90;;;;;;5030938;28;20033;-70
2022/10/31 07:24:07;;;;;;;7.15;2.53;;;12.20;99.90;;;;;;5023483;28;20068;-70
2022/10/31 07:26:33;;;;;;;5.82;2.45;;;12.30;99.90;;;;;;5021598;28;20025;-70
2022/10/31 07:28:59;;;;;;;12.30;3.15;;;12.20;99.90;;;;;;5024485;28;20392;-70
2022/10/31 07:31:25;;;;;;;11.00;2.75;;;12.10;99.90;;;;;;5029676;28;20033;-70
2022/10/31 07:33:51;;;;;;;11.50;3.38;;;12.10;99.90;;;;;;5021072;28;20447;-70
2022/10/31 07:36:17;;;;;;;8.80;2.42;;;12.30;99.90;;;;;;5023916;28;20041;-70
2022/10/31 07:38:42;;;;;;;8.68;3.47;;;12.60;99.90;;;;;;5027421;28;20116;-69
2022/10/31 07:41:09;;;;;;;9.80;3.33;;;12.80;99.90;;;;;;5029439;28;20076;-69
2022/10/31 07:43:35;;;;;;;13.13;3.58;;;13.00;99.90;;;;;;5028683;28;20404;-69
2022/10/31 07:46:00;;;;;;;9.98;2.92;;;13.00;99.90;;;;;;5023805;28;20061;-69
2022/10/31 07:48:26;;;;;;;14.43;3.03;;;13.10;99.90;;;;;;5026718;28;20052;-69
2022/10/31 07:50:51;;;;;;;19.27;4.30;;;13.00;99.90;;;;;;5036148;28;20037;-69
2022/10/31 07:53:17;;;;;;;9.23;2.97;;;12.90;99.90;;;;;;5033829;28;20032;-71
2022/10/31 07:55:43;;;;;;;13.23;3.72;;;12.80;99.90;;;;;;5033483;28;20049;-72
2022/10/31 07:58:14;;;;;;;12.82;3.83;;;12.70;99.90;;;;;;5031675;28;20130;-71
2022/10/31 08:00:42;;;;;;;9.25;2.17;;;12.50;99.90;;;;;;5028002;28;20086;-71
2022/10/31 08:03:13;;;;;;;8.52;3.20;;;12.50;99.90;;;;;;5020590;28;20029;-71
2022/10/31 08:05:40;;;;;;;17.55;3.95;;;12.50;99.90;;;;;;5023453;28;20037;-71
2022/10/31 08:08:07;;;;;;;8.27;2.60;;;12.50;99.90;;;;;;5025914;28;20056;-71
2022/10/31 08:10:33;;;;;;;8.55;2.63;;;12.40;99.90;;;;;;5028201;28;20028;-71
2022/10/31 08:13:01;;;;;;;12.10;2.75;;;12.50;99.90;;;;;;5029933;28;20495;-71
2022/10/31 08:15:28;;;;;;;7.28;3.05;;;12.50;99.90;;;;;;5028007;28;20068;-72
2022/10/31 08:17:54;;;;;;;11.98;2.50;;;12.60;99.90;;;;;;5028675;28;23402;-71
2022/10/31 08:20:20;;;;;;;14.38;3.05;;;12.70;99.90;;;;;;5028612;28;20033;-71
2022/10/31 08:23:00;;;;;;;6.40;2.75;;;12.70;99.90;;;;;;5027090;28;20041;-72
2022/10/31 08:25:27;;;;;;;9.55;2.13;;;12.60;99.90;;;;;;5031826;28;20299;-71
2022/10/31 08:27:54;;;;;;;12.57;4.18;;;12.50;99.90;;;;;;5032543;28;20128;-71
2022/10/31 08:30:21;;;;;;;9.70;3.03;;;12.60;99.90;;;;;;5028968;28;20321;-71
2022/10/31 08:32:47;;;;;;;10.18;3.17;;;12.60;99.90;;;;;;5032322;28;20448;-71
2022/10/31 08:35:13;;;;;;;7.43;2.78;;;12.60;99.90;;;;;;5027254;28;20654;-72
2022/10/31 08:37:39;;;;;;;12.65;3.50;;;12.70;99.90;;;;;;5030351;28;20029;-72
2022/10/31 08:40:06;;;;;;;7.95;3.20;;;12.60;99.90;;;;;;5033147;28;20021;-73
2022/10/31 08:42:32;;;;;;;11.60;3.72;;;12.60;99.90;;;;;;5025464;28;20025;-73
2022/10/31 08:44:58;;;;;;;6.65;2.42;;;12.60;99.90;;;;;;5028464;28;20356;-73
2022/10/31 08:47:23;;;;;;;10.48;3.22;;;12.70;99.90;;;;;;5032267;28;20037;-73
2022/10/31 08:49:49;;;;;;;14.20;4.25;;;12.70;99.90;;;;;;5025809;28;20041;-75
2022/10/31 08:52:15;;;;;;;9.30;3.15;;;12.70;99.90;;;;;;5027989;28;20063;-74
2022/10/31 08:54:41;;;;;;;9.85;3.00;;;12.90;99.90;;;;;;5033468;28;20105;-74
2022/10/31 08:57:07;;;;;;;12.55;2.55;;;13.00;99.90;;;;;;5036205;28;20433;-73
2022/10/31 08:59:32;;;;;;;10.18;3.08;;;13.00;99.90;;;;;;5039326;28;20066;-73
2022/10/31 09:01:58;;;;;;;11.30;3.38;;;13.20;99.90;;;;;;5034742;28;20063;-73
2022/10/31 09:04:23;;;;;;;11.18;3.80;;;13.20;99.90;;;;;;5027039;28;20025;-74
2022/10/31 09:06:49;;;;;;;18.98;3.58;;;13.30;99.90;;;;;;5032312;28;20033;-73
2022/10/31 09:09:15;;;;;;;9.85;2.78;;;13.30;99.90;;;;;;5027888;28;20490;-73
2022/10/31 09:11:40;;;;;;;12.13;2.90;;;13.30;99.90;;;;;;5032588;28;20035;-74
2022/10/31 09:14:06;;;;;;;10.60;2.95;;;13.50;99.90;;;;;;5026686;28;20037;-74
2022/10/31 09:16:31;;;;;;;13.45;3.65;;;13.80;99.90;;;;;;5033796;28;20056;-73
2022/10/31 09:18:57;;;;;;;7.65;2.90;;;14.00;99.90;;;;;;5031332;28;20119;-73
2022/10/31 09:21:23;;;;;;;12.45;2.92;;;14.00;99.90;;;;;;5024810;28;20030;-73
2022/10/31 09:23:48;;;;;;;14.30;4.13;;;14.20;99.90;;;;;;5029527;28;20559;-73
2022/10/31 09:26:14;;;;;;;12.00;5.10;;;14.20;99.90;;;;;;5025399;28;20028;-74
2022/10/31 09:28:39;;;;;;;9.98;3.42;;;14.20;99.90;;;;;;5033574;28;20431;-74
2022/10/31 09:31:05;;;;;;;16.83;3.25;;;14.30;99.90;;;;;;5027292;28;20033;-73
2022/10/31 09:33:31;;;;;;;11.13;4.00;;;14.30;99.90;;;;;;5033493;28;20021;-73
2022/10/31 09:35:58;;;;;;;8.32;3.53;;;14.20;99.90;;;;;;5025789;28;20045;-73
2022/10/31 09:38:24;;;;;;;10.77;3.03;;;14.40;99.90;;;;;;5035650;28;20587;-73
2022/10/31 09:41:08;;;;;;;13.98;3.40;;;14.60;99.90;;;;;;5027889;28;20033;-73
2022/10/31 09:44:05;;;;;;;15.32;4.05;;;14.80;99.90;;;;;;5030271;28;20121;-73
2022/10/31 09:46:39;;;;;;;7.78;2.78;;;14.90;99.90;;;;;;5025656;28;20148;-73
2022/10/31 09:49:44;;;;;;;10.95;3.85;;;14.90;99.90;;;;;;5030509;28;20029;-73
2022/10/31 09:52:09;;;;;;;12.80;3.63;;;14.90;99.90;;;;;;5025392;28;20129;-74
2022/10/31 09:54:42;;;;;;;8.73;3.10;;;14.90;99.90;;;;;;5035402;28;20104;-73
2022/10/31 09:57:14;;;;;;;8.85;2.85;;;14.90;99.90;;;;;;5031121;28;20033;-73
2022/10/31 09:59:41;;;;;;;15.82;3.42;;;15.00;99.90;;;;;;5030030;28;20037;-73
2022/10/31 10:02:30;;;;;;;9.60;3.20;;;15.00;99.90;;;;;;5032387;28;20035;-72
2022/10/31 10:05:09;;;;;;;11.32;3.80;;;15.00;99.90;;;;;;5026415;28;20041;-73
2022/10/31 10:07:48;;;;;;;8.32;3.70;;;15.00;99.90;;;;;;5028200;28;20026;-73
2022/10/31 10:10:17;;;;;;;11.02;3.58;;;15.10;99.90;;;;;;5027257;28;20033;-71
2022/10/31 10:13:25;;;;;;;9.80;3.22;;;15.20;99.90;;;;;;5025366;28;20037;-71
2022/10/31 10:16:09;;;;;;;8.65;3.22;;;15.30;99.90;;;;;;4971861;28;20487;-71
2022/10/31 10:19:08;;;;;;;10.65;2.53;;;15.40;99.90;;;;;;4997239;28;20030;-71
2022/10/31 10:21:42;;;;;;;13.65;3.30;;;15.50;99.90;;;;;;4997251;28;20599;-71
2022/10/31 10:24:29;;;;;;;11.48;3.42;;;15.60;99.90;;;;;;4988444;28;20040;-71
2022/10/31 10:27:22;;;;;;;11.60;2.97;;;15.90;99.90;;;;;;4991333;28;20092;-71
2022/10/31 10:29:59;;;;;;;13.40;3.75;;;15.90;99.90;;;;;;5001719;28;20038;-71
2022/10/31 10:32:29;;;;;;;11.45;3.45;;;15.90;99.90;;;;;;4998999;28;20173;-71
2022/10/31 10:34:59;;;;;;;8.98;3.38;;;16.00;99.90;;;;;;5023971;28;20065;-71
2022/10/31 10:37:33;;;;;;;8.10;2.47;;;16.00;99.90;;;;;;5009758;28;20034;-71
2022/10/31 10:40:15;;;;;;;7.93;2.97;;;16.10;99.90;;;;;;4997102;28;20041;-71
2022/10/31 10:48:40;;;;;;;10.38;3.35;;;16.40;99.90;;;;;;4986474;28;20033;-71
2022/10/31 10:51:18;;;;;;;9.90;2.72;;;16.50;99.90;;;;;;4992015;28;21071;-71
2022/10/31 10:54:13;;;;;;;9.57;3.10;;;16.70;99.90;;;;;;5007119;28;20032;-71
2022/10/31 10:56:53;;;;;;;14.93;6.78;;;16.70;99.90;;;;;;4992696;28;20096;-71
2022/10/31 10:59:21;;;;;;;11.48;2.92;;;16.70;99.90;;;;;;5014461;28;20036;-71
2022/10/31 11:01:50;;;;;;;9.48;3.22;;;16.70;99.90;;;;;;5026134;28;20037;-71
2022/10/31 11:04:34;;;;;;;8.20;2.90;;;16.70;99.90;;;;;;5025252;28;20049;-71
2022/10/31 11:07:05;;;;;;;9.23;2.80;;;16.90;99.90;;;;;;5019215;28;20037;-71
2022/10/31 11:09:32;;;;;;;16.23;4.25;;;17.10;99.90;;;;;;5026287;28;20029;-71
2022/10/31 11:11:58;;;;;;;8.63;2.95;;;17.20;99.90;;;;;;5026309;28;20041;-71
2022/10/31 11:14:25;;;;;;;9.10;3.05;;;17.30;99.70;;;;;;5021048;28;20061;-71
2022/10/31 11:17:08;;;;;;;14.27;3.58;;;17.30;99.80;;;;;;5044303;28;20072;-71
2022/10/31 11:19:34;;;;;;;8.65;2.90;;;17.30;99.70;;;;;;5025899;28;20117;-71
2022/10/31 11:22:08;;;;;;;11.18;2.97;;;17.30;99.50;;;;;;5027054;28;20108;-71
2022/10/31 11:24:39;;;;;;;17.08;3.95;;;17.40;99.60;;;;;;5027685;28;20128;-70
2022/10/31 11:27:23;;;;;;;10.13;3.13;;;17.40;99.20;;;;;;5029193;28;20049;-69
2022/10/31 11:29:50;;;;;;;9.73;3.60;;;17.60;99.50;;;;;;5027552;28;20032;-69
2022/10/31 11:32:26;;;;;;;8.70;2.60;;;17.60;99.20;;;;;;5032800;28;20029;-69
2022/10/31 11:34:54;;;;;;;11.90;3.35;;;17.60;99.30;;;;;;5031876;28;20034;-69
2022/10/31 11:37:30;;;;;;;13.80;2.83;;;17.70;99.00;;;;;;5035300;28;20045;-70
2022/10/31 11:39:58;;;;;;;10.82;2.95;;;17.70;98.70;;;;;;5029138;28;20076;-70
2022/10/31 11:42:34;;;;;;;9.02;2.80;;;17.70;98.70;;;;;;5027655;28;20033;-68
2022/10/31 11:45:05;;;;;;;11.23;3.20;;;17.70;98.40;;;;;;5025330;28;20060;-69
2022/10/31 11:47:36;;;;;;;10.73;3.63;;;17.80;98.70;;;;;;5027439;28;20036;-70
2022/10/31 11:50:09;;;;;;;17.83;4.30;;;17.80;98.40;;;;;;5033035;28;20040;-69
2022/10/31 11:52:39;;;;;;;8.05;2.85;;;17.80;98.30;;;;;;5030186;28;20029;-69
2022/10/31 11:55:39;;;;;;;9.75;3.60;;;17.80;98.60;;;;;;5023744;28;20021;-69
2022/10/31 11:58:20;;;;;;;9.23;3.28;;;17.90;98.30;;;;;;5027311;28;20087;-69
2022/10/31 12:00:50;;;;;;;10.35;2.90;;;18.00;98.40;;;;;;5023244;28;20108;-72
2022/10/31 12:03:51;;;;;;;10.32;3.33;;;18.10;98.90;;;;;;5026484;28;20068;-70
2022/10/31 12:06:32;;;;;;;10.57;3.10;;;18.20;98.60;;;;;;5024600;28;20029;-71
2022/10/31 12:08:57;;;;;;;15.55;3.25;;;18.20;98.50;;;;;;5028623;28;20036;-70
2022/10/31 12:11:29;;;;;;;11.43;3.42;;;18.30;98.20;;;;;;5029710;28;20029;-70
2022/10/31 12:14:01;;;;;;;12.55;3.80;;;18.30;98.10;;;;;;5029715;28;20025;-70
2022/10/31 12:16:36;;;;;;;12.35;3.08;;;18.50;98.30;;;;;;5027839;28;20053;-71
2022/10/31 12:19:20;;;;;;;15.77;3.90;;;18.50;98.30;;;;;;5024973;28;20089;-70
2022/10/31 12:22:19;;;;;;;10.95;3.13;;;18.50;98.10;;;;;;5026261;28;20034;-71
2022/10/31 12:24:54;;;;;;;11.23;3.35;;;18.50;98.50;;;;;;5023345;28;20029;-71
2022/10/31 12:27:40;;;;;;;9.85;3.20;;;18.60;98.50;;;;;;5040632;28;20045;-71
2022/10/31 12:30:18;;;;;;;14.25;4.03;;;18.50;98.00;;;;;;5043795;28;20021;-71
2022/10/31 12:32:56;;;;;;;7.68;2.85;;;18.30;97.70;;;;;;5048060;28;20036;-71
2022/10/31 12:36:07;;;;;;;8.40;3.45;;;18.40;97.90;;;;;;5033705;28;20029;-71
2022/10/31 12:39:10;;;;;;;10.07;3.75;;;18.40;98.20;;;;;;5020995;28;20041;-71
2022/10/31 12:41:42;;;;;;;11.82;3.42;;;18.50;98.00;;;;;;4991710;28;20200;-71
2022/10/31 12:44:35;;;;;;;11.70;3.10;;;18.60;98.40;;;;;;5028593;28;20491;-71
2022/10/31 12:47:25;;;;;;;9.80;2.78;;;18.80;97.60;;;;;;5043009;28;20021;-71
2022/10/31 12:50:12;;;;;;;9.23;3.22;;;18.70;97.90;;;;;;5032834;28;20099;-71
2022/10/31 12:52:41;;;;;;;16.00;2.83;;;18.70;97.40;;;;;;5038016;28;20029;-71
2022/10/31 12:55:39;;;;;;;9.38;3.80;;;18.60;97.60;;;;;;5052070;28;20031;-71
2022/10/31 12:58:15;;;;;;;11.73;3.85;;;18.70;97.80;;;;;;5060324;28;20585;-71
2022/10/31 13:00:46;;;;;;;15.25;2.75;;;18.70;97.10;;;;;;5069453;28;20451;-71
2022/10/31 13:03:26;;;;;;;8.02;3.42;;;18.80;97.80;;;;;;5058275;28;20037;-71
2022/10/31 13:05:57;;;;;;;9.75;3.63;;;18.80;97.20;;;;;;5031345;28;20542;-72